Aérodrome :
LOGIN :

S'inscrire | Disclaimer

   EN    FR    IT 

 










Légende :    VFR   VFR Marginal   IFR   IFR Intensif   IFR Très Intensif
Visi : 
Plafond : 
>= 8 km
>= 3000ft
5 à 8 km
1000 à 3000 ft
1500m à 5 km
500 à 1000 ft
800 à 1500m
200 à 500 ft
< 800m
< 200 ft
Symboles :   Orages  Brouillard  Fortes neiges  Fortes précipitations  Vent > 20 kt
SIGMETs :   Divers  Orages  Givrage  Turbulence  Onde Orograph.  Cendres Volcan.






- Altitude de l'aérodrome : 512 ft
- Code IATA : URO


LFOP - Rouen Vallée de Seine

DERNIER METAR :
  • 190430Z AUTO 30001KT 8000 OVC041 04/03 Q1017

METARs EXPIRÉS :
  • 190400Z AUTO VRB01KT 8000 OVC041 04/03 Q1017
  • 190330Z AUTO 26004KT 9000 OVC041 04/03 Q1017
  • 190300Z AUTO 29004KT 9999 OVC040 04/03 Q1017
  • 190230Z AUTO 00000KT 9999 OVC041 03/03 Q1017
  • 190200Z AUTO VRB02KT 9999 BKN042 04/03 Q1017

TAF TAF LFOP
Valide du 18 à 18h jusqu'au 19 à 18h UTC


181700Z 1818/1918 30005KT 9999 BKN030
TEMPO 1903/1908 3000 BR
ATIS : +33 2 35 80 80 34
Météo : +33 2 32 86 52 80



MET'MAP, la Météo Aéronautique d'un coup d'oeil ! - Copyright ORBIFLY Décembre 2007 - Disclaimer

ORBIFLY MET'MAP TEAM :

Programmation & Développement : Alexandra Zaïnal
Conception & Développement : Baudouin d'Aumeries
Co-Programmation & Développement : Marc-Olivier Méhu
Soutien technique & logistique : Manuel Goepfert

Contact : metmap@orbifly.com




SOURCES & CREDITS :

   NOAA